sensor_id;sensor_type;location;lat;lon;timestamp;P1;durP1;ratioP1;P2;durP2;ratioP2
36827;SDS011;22766;48.042;11.192;2024-01-30T00:02:16;6.95;;;3.28;;
36827;SDS011;22766;48.042;11.192;2024-01-30T00:04:43;7.40;;;3.10;;
36827;SDS011;22766;48.042;11.192;2024-01-30T00:07:10;6.78;;;3.50;;
36827;SDS011;22766;48.042;11.192;2024-01-30T00:09:37;6.72;;;3.33;;
36827;SDS011;22766;48.042;11.192;2024-01-30T00:12:05;6.05;;;2.95;;
36827;SDS011;22766;48.042;11.192;2024-01-30T00:14:32;5.65;;;3.13;;
36827;SDS011;22766;48.042;11.192;2024-01-30T00:17:00;6.30;;;3.55;;
36827;SDS011;22766;48.042;11.192;2024-01-30T00:19:26;7.45;;;2.75;;
36827;SDS011;22766;48.042;11.192;2024-01-30T00:21:53;5.53;;;3.30;;
36827;SDS011;22766;48.042;11.192;2024-01-30T00:24:20;5.40;;;2.80;;
36827;SDS011;22766;48.042;11.192;2024-01-30T00:26:47;4.70;;;3.15;;
36827;SDS011;22766;48.042;11.192;2024-01-30T00:29:13;6.72;;;2.80;;
36827;SDS011;22766;48.042;11.192;2024-01-30T00:31:45;9.90;;;3.10;;
36827;SDS011;22766;48.042;11.192;2024-01-30T00:34:12;6.03;;;3.15;;
36827;SDS011;22766;48.042;11.192;2024-01-30T00:36:40;4.95;;;2.80;;
36827;SDS011;22766;48.042;11.192;2024-01-30T00:39:06;8.57;;;3.50;;
36827;SDS011;22766;48.042;11.192;2024-01-30T00:41:35;10.82;;;3.33;;
36827;SDS011;22766;48.042;11.192;2024-01-30T00:44:02;7.63;;;3.33;;
36827;SDS011;22766;48.042;11.192;2024-01-30T00:46:29;5.82;;;2.97;;
36827;SDS011;22766;48.042;11.192;2024-01-30T00:48:56;4.35;;;3.05;;
36827;SDS011;22766;48.042;11.192;2024-01-30T00:51:23;5.63;;;2.95;;
36827;SDS011;22766;48.042;11.192;2024-01-30T00:53:49;6.82;;;3.22;;
36827;SDS011;22766;48.042;11.192;2024-01-30T00:56:16;9.73;;;2.97;;
36827;SDS011;22766;48.042;11.192;2024-01-30T00:58:44;6.95;;;3.15;;
36827;SDS011;22766;48.042;11.192;2024-01-30T01:01:11;5.28;;;2.72;;
36827;SDS011;22766;48.042;11.192;2024-01-30T01:03:38;7.25;;;3.45;;
36827;SDS011;22766;48.042;11.192;2024-01-30T01:06:07;4.82;;;2.53;;
36827;SDS011;22766;48.042;11.192;2024-01-30T01:08:34;4.20;;;3.00;;
36827;SDS011;22766;48.042;11.192;2024-01-30T01:11:01;7.82;;;3.42;;
36827;SDS011;22766;48.042;11.192;2024-01-30T01:13:29;7.60;;;3.05;;
36827;SDS011;22766;48.042;11.192;2024-01-30T01:15:58;6.53;;;3.00;;
36827;SDS011;22766;48.042;11.192;2024-01-30T01:18:25;7.03;;;3.10;;
36827;SDS011;22766;48.042;11.192;2024-01-30T01:20:52;4.55;;;2.80;;
36827;SDS011;22766;48.042;11.192;2024-01-30T01:23:19;7.30;;;3.33;;
36827;SDS011;22766;48.042;11.192;2024-01-30T01:25:46;7.28;;;3.10;;
36827;SDS011;22766;48.042;11.192;2024-01-30T01:28:12;6.22;;;2.83;;
36827;SDS011;22766;48.042;11.192;2024-01-30T01:30:39;6.05;;;3.15;;
36827;SDS011;22766;48.042;11.192;2024-01-30T01:33:06;5.38;;;3.65;;
36827;SDS011;22766;48.042;11.192;2024-01-30T01:35:33;8.15;;;3.20;;
36827;SDS011;22766;48.042;11.192;2024-01-30T01:38:00;6.57;;;2.72;;
36827;SDS011;22766;48.042;11.192;2024-01-30T01:40:27;5.70;;;2.42;;
36827;SDS011;22766;48.042;11.192;2024-01-30T01:42:55;8.10;;;3.53;;
36827;SDS011;22766;48.042;11.192;2024-01-30T01:45:22;4.50;;;2.65;;
36827;SDS011;22766;48.042;11.192;2024-01-30T01:47:52;3.88;;;2.55;;
36827;SDS011;22766;48.042;11.192;2024-01-30T01:50:20;6.28;;;2.85;;
36827;SDS011;22766;48.042;11.192;2024-01-30T01:52:48;7.88;;;3.30;;
36827;SDS011;22766;48.042;11.192;2024-01-30T01:55:16;5.50;;;3.00;;
36827;SDS011;22766;48.042;11.192;2024-01-30T01:57:48;4.45;;;2.78;;
36827;SDS011;22766;48.042;11.192;2024-01-30T02:00:15;6.07;;;3.28;;
36827;SDS011;22766;48.042;11.192;2024-01-30T02:02:42;7.18;;;3.20;;
36827;SDS011;22766;48.042;11.192;2024-01-30T02:05:11;6.28;;;3.00;;
36827;SDS011;22766;48.042;11.192;2024-01-30T02:07:38;6.53;;;2.80;;
36827;SDS011;22766;48.042;11.192;2024-01-30T02:10:07;4.97;;;3.10;;
36827;SDS011;22766;48.042;11.192;2024-01-30T02:12:34;7.65;;;3.50;;
36827;SDS011;22766;48.042;11.192;2024-01-30T02:15:01;7.82;;;3.08;;
36827;SDS011;22766;48.042;11.192;2024-01-30T02:17:28;5.28;;;2.92;;
36827;SDS011;22766;48.042;11.192;2024-01-30T02:19:55;5.30;;;2.67;;
36827;SDS011;22766;48.042;11.192;2024-01-30T02:22:22;5.82;;;2.80;;
36827;SDS011;22766;48.042;11.192;2024-01-30T02:24:50;8.13;;;3.20;;
36827;SDS011;22766;48.042;11.192;2024-01-30T02:27:17;6.78;;;3.10;;
36827;SDS011;22766;48.042;11.192;2024-01-30T02:29:44;4.22;;;2.63;;
36827;SDS011;22766;48.042;11.192;2024-01-30T02:32:10;7.53;;;3.42;;
36827;SDS011;22766;48.042;11.192;2024-01-30T02:34:37;7.15;;;3.08;;
36827;SDS011;22766;48.042;11.192;2024-01-30T02:37:04;7.85;;;3.28;;
36827;SDS011;22766;48.042;11.192;2024-01-30T02:39:31;6.63;;;2.58;;
36827;SDS011;22766;48.042;11.192;2024-01-30T02:41:58;7.40;;;2.70;;
36827;SDS011;22766;48.042;11.192;2024-01-30T02:44:25;5.60;;;3.17;;
36827;SDS011;22766;48.042;11.192;2024-01-30T02:46:52;4.68;;;2.78;;
36827;SDS011;22766;48.042;11.192;2024-01-30T02:49:20;5.90;;;3.08;;
36827;SDS011;22766;48.042;11.192;2024-01-30T02:51:48;4.93;;;2.67;;
36827;SDS011;22766;48.042;11.192;2024-01-30T02:54:15;4.10;;;2.90;;
36827;SDS011;22766;48.042;11.192;2024-01-30T02:56:42;7.32;;;2.97;;
36827;SDS011;22766;48.042;11.192;2024-01-30T02:59:09;7.03;;;3.20;;
36827;SDS011;22766;48.042;11.192;2024-01-30T03:01:43;6.25;;;2.97;;
36827;SDS011;22766;48.042;11.192;2024-01-30T03:04:11;4.93;;;2.30;;
36827;SDS011;22766;48.042;11.192;2024-01-30T03:06:38;8.25;;;2.38;;
36827;SDS011;22766;48.042;11.192;2024-01-30T03:09:05;7.70;;;2.78;;
36827;SDS011;22766;48.042;11.192;2024-01-30T03:11:32;4.28;;;2.60;;
36827;SDS011;22766;48.042;11.192;2024-01-30T03:13:59;4.57;;;2.85;;
36827;SDS011;22766;48.042;11.192;2024-01-30T03:16:25;4.13;;;2.65;;
36827;SDS011;22766;48.042;11.192;2024-01-30T03:18:53;5.97;;;2.90;;
36827;SDS011;22766;48.042;11.192;2024-01-30T03:21:20;6.32;;;2.80;;
36827;SDS011;22766;48.042;11.192;2024-01-30T03:23:48;5.45;;;2.85;;
36827;SDS011;22766;48.042;11.192;2024-01-30T03:26:15;6.65;;;2.47;;
36827;SDS011;22766;48.042;11.192;2024-01-30T03:28:42;6.18;;;2.83;;
36827;SDS011;22766;48.042;11.192;2024-01-30T03:31:09;6.80;;;2.50;;
36827;SDS011;22766;48.042;11.192;2024-01-30T03:33:39;5.85;;;2.45;;
36827;SDS011;22766;48.042;11.192;2024-01-30T03:36:06;5.07;;;2.80;;
36827;SDS011;22766;48.042;11.192;2024-01-30T03:38:34;5.40;;;2.10;;
36827;SDS011;22766;48.042;11.192;2024-01-30T03:41:01;3.92;;;2.42;;
36827;SDS011;22766;48.042;11.192;2024-01-30T03:43:30;4.43;;;2.20;;
36827;SDS011;22766;48.042;11.192;2024-01-30T03:45:57;4.18;;;2.65;;
36827;SDS011;22766;48.042;11.192;2024-01-30T03:48:24;3.78;;;2.30;;
36827;SDS011;22766;48.042;11.192;2024-01-30T03:50:52;5.18;;;3.10;;
36827;SDS011;22766;48.042;11.192;2024-01-30T03:53:19;6.88;;;2.75;;
36827;SDS011;22766;48.042;11.192;2024-01-30T03:55:46;2.70;;;1.88;;
36827;SDS011;22766;48.042;11.192;2024-01-30T03:58:13;4.13;;;2.80;;
36827;SDS011;22766;48.042;11.192;2024-01-30T04:00:40;4.25;;;2.60;;
36827;SDS011;22766;48.042;11.192;2024-01-30T04:03:07;4.47;;;2.30;;
36827;SDS011;22766;48.042;11.192;2024-01-30T04:05:34;3.35;;;1.75;;
36827;SDS011;22766;48.042;11.192;2024-01-30T04:08:01;2.92;;;2.00;;
36827;SDS011;22766;48.042;11.192;2024-01-30T04:10:28;3.47;;;2.25;;
36827;SDS011;22766;48.042;11.192;2024-01-30T04:12:55;5.97;;;2.65;;
36827;SDS011;22766;48.042;11.192;2024-01-30T04:15:22;5.70;;;2.60;;
36827;SDS011;22766;48.042;11.192;2024-01-30T04:17:48;2.88;;;2.05;;
36827;SDS011;22766;48.042;11.192;2024-01-30T04:20:15;8.20;;;2.72;;
36827;SDS011;22766;48.042;11.192;2024-01-30T04:22:46;3.47;;;2.25;;
36827;SDS011;22766;48.042;11.192;2024-01-30T04:25:13;4.43;;;2.60;;
36827;SDS011;22766;48.042;11.192;2024-01-30T04:27:40;3.17;;;1.92;;
36827;SDS011;22766;48.042;11.192;2024-01-30T04:30:07;4.75;;;2.38;;
36827;SDS011;22766;48.042;11.192;2024-01-30T04:32:35;4.97;;;2.30;;
36827;SDS011;22766;48.042;11.192;2024-01-30T04:35:03;8.05;;;2.50;;
36827;SDS011;22766;48.042;11.192;2024-01-30T04:37:36;4.82;;;2.35;;
36827;SDS011;22766;48.042;11.192;2024-01-30T04:40:03;13.90;;;2.53;;
36827;SDS011;22766;48.042;11.192;2024-01-30T04:42:32;5.63;;;2.13;;
36827;SDS011;22766;48.042;11.192;2024-01-30T04:44:58;4.90;;;2.35;;
36827;SDS011;22766;48.042;11.192;2024-01-30T04:47:25;4.65;;;2.42;;
36827;SDS011;22766;48.042;11.192;2024-01-30T04:49:52;5.65;;;2.75;;
36827;SDS011;22766;48.042;11.192;2024-01-30T04:52:19;3.78;;;2.67;;
36827;SDS011;22766;48.042;11.192;2024-01-30T04:54:47;2.67;;;1.73;;
36827;SDS011;22766;48.042;11.192;2024-01-30T04:57:14;3.92;;;2.00;;
36827;SDS011;22766;48.042;11.192;2024-01-30T04:59:41;3.97;;;2.55;;
36827;SDS011;22766;48.042;11.192;2024-01-30T05:02:07;2.90;;;1.88;;
36827;SDS011;22766;48.042;11.192;2024-01-30T05:04:35;3.40;;;2.10;;
36827;SDS011;22766;48.042;11.192;2024-01-30T05:07:04;3.63;;;2.15;;
36827;SDS011;22766;48.042;11.192;2024-01-30T05:09:31;3.75;;;1.95;;
36827;SDS011;22766;48.042;11.192;2024-01-30T05:12:01;3.85;;;1.92;;
36827;SDS011;22766;48.042;11.192;2024-01-30T05:14:27;4.10;;;2.50;;
36827;SDS011;22766;48.042;11.192;2024-01-30T05:16:54;5.35;;;1.70;;
36827;SDS011;22766;48.042;11.192;2024-01-30T05:19:21;4.38;;;2.42;;
36827;SDS011;22766;48.042;11.192;2024-01-30T05:21:50;4.50;;;2.35;;
36827;SDS011;22766;48.042;11.192;2024-01-30T05:24:17;4.50;;;2.38;;
36827;SDS011;22766;48.042;11.192;2024-01-30T05:26:46;3.13;;;1.80;;
36827;SDS011;22766;48.042;11.192;2024-01-30T05:29:14;3.70;;;2.47;;
36827;SDS011;22766;48.042;11.192;2024-01-30T05:34:33;4.60;;;1.80;;
36827;SDS011;22766;48.042;11.192;2024-01-30T05:37:01;4.18;;;2.40;;
36827;SDS011;22766;48.042;11.192;2024-01-30T05:39:28;6.15;;;2.10;;
36827;SDS011;22766;48.042;11.192;2024-01-30T05:41:54;5.35;;;2.83;;
36827;SDS011;22766;48.042;11.192;2024-01-30T05:44:21;2.53;;;1.70;;
36827;SDS011;22766;48.042;11.192;2024-01-30T05:46:48;2.70;;;1.70;;
36827;SDS011;22766;48.042;11.192;2024-01-30T05:49:15;3.80;;;2.38;;
36827;SDS011;22766;48.042;11.192;2024-01-30T05:51:42;4.05;;;2.38;;
36827;SDS011;22766;48.042;11.192;2024-01-30T05:54:09;4.43;;;1.98;;
36827;SDS011;22766;48.042;11.192;2024-01-30T05:56:40;2.47;;;1.83;;
36827;SDS011;22766;48.042;11.192;2024-01-30T05:59:06;6.47;;;2.22;;
36827;SDS011;22766;48.042;11.192;2024-01-30T06:01:34;3.22;;;1.88;;
36827;SDS011;22766;48.042;11.192;2024-01-30T06:04:01;4.97;;;2.08;;
36827;SDS011;22766;48.042;11.192;2024-01-30T06:06:28;4.53;;;2.30;;
36827;SDS011;22766;48.042;11.192;2024-01-30T06:08:55;4.28;;;1.55;;
36827;SDS011;22766;48.042;11.192;2024-01-30T06:11:22;6.63;;;2.00;;
36827;SDS011;22766;48.042;11.192;2024-01-30T06:13:49;3.38;;;2.03;;
36827;SDS011;22766;48.042;11.192;2024-01-30T06:16:16;3.17;;;1.92;;
36827;SDS011;22766;48.042;11.192;2024-01-30T06:18:42;3.65;;;1.77;;
36827;SDS011;22766;48.042;11.192;2024-01-30T06:21:09;4.05;;;2.42;;
36827;SDS011;22766;48.042;11.192;2024-01-30T06:23:38;3.38;;;2.15;;
36827;SDS011;22766;48.042;11.192;2024-01-30T06:26:08;2.38;;;1.63;;
36827;SDS011;22766;48.042;11.192;2024-01-30T06:28:36;9.00;;;2.30;;
36827;SDS011;22766;48.042;11.192;2024-01-30T06:31:03;5.63;;;2.10;;
36827;SDS011;22766;48.042;11.192;2024-01-30T06:33:31;3.20;;;2.20;;
36827;SDS011;22766;48.042;11.192;2024-01-30T06:35:58;4.53;;;2.10;;
36827;SDS011;22766;48.042;11.192;2024-01-30T06:38:24;4.68;;;2.78;;
36827;SDS011;22766;48.042;11.192;2024-01-30T06:40:51;2.70;;;2.10;;
36827;SDS011;22766;48.042;11.192;2024-01-30T06:43:18;6.35;;;2.60;;
36827;SDS011;22766;48.042;11.192;2024-01-30T06:45:45;5.05;;;2.35;;
36827;SDS011;22766;48.042;11.192;2024-01-30T06:48:13;6.78;;;2.03;;
36827;SDS011;22766;48.042;11.192;2024-01-30T06:50:39;5.40;;;2.25;;
36827;SDS011;22766;48.042;11.192;2024-01-30T06:53:06;6.40;;;2.40;;
36827;SDS011;22766;48.042;11.192;2024-01-30T06:55:33;3.78;;;2.50;;
36827;SDS011;22766;48.042;11.192;2024-01-30T06:58:00;4.00;;;2.47;;
36827;SDS011;22766;48.042;11.192;2024-01-30T07:00:27;5.28;;;2.83;;
36827;SDS011;22766;48.042;11.192;2024-01-30T07:02:54;6.53;;;2.58;;
36827;SDS011;22766;48.042;11.192;2024-01-30T07:05:21;4.20;;;2.08;;
36827;SDS011;22766;48.042;11.192;2024-01-30T07:08:05;2.97;;;2.55;;
36827;SDS011;22766;48.042;11.192;2024-01-30T07:10:45;5.82;;;2.05;;
36827;SDS011;22766;48.042;11.192;2024-01-30T07:13:12;5.72;;;2.65;;
36827;SDS011;22766;48.042;11.192;2024-01-30T07:15:39;3.42;;;2.10;;
36827;SDS011;22766;48.042;11.192;2024-01-30T07:18:06;3.95;;;2.33;;
36827;SDS011;22766;48.042;11.192;2024-01-30T07:20:34;3.50;;;2.20;;
36827;SDS011;22766;48.042;11.192;2024-01-30T07:23:16;4.90;;;2.33;;
36827;SDS011;22766;48.042;11.192;2024-01-30T07:25:44;7.25;;;3.42;;
36827;SDS011;22766;48.042;11.192;2024-01-30T07:28:19;26.55;;;7.93;;
36827;SDS011;22766;48.042;11.192;2024-01-30T07:30:47;13.27;;;5.80;;
36827;SDS011;22766;48.042;11.192;2024-01-30T07:33:22;13.60;;;5.95;;
36827;SDS011;22766;48.042;11.192;2024-01-30T07:35:52;10.38;;;4.30;;
36827;SDS011;22766;48.042;11.192;2024-01-30T07:38:20;5.63;;;2.75;;
36827;SDS011;22766;48.042;11.192;2024-01-30T07:40:46;7.55;;;3.00;;
36827;SDS011;22766;48.042;11.192;2024-01-30T07:43:14;5.45;;;2.58;;
36827;SDS011;22766;48.042;11.192;2024-01-30T07:45:40;4.05;;;2.30;;
36827;SDS011;22766;48.042;11.192;2024-01-30T07:48:08;2.88;;;1.80;;
36827;SDS011;22766;48.042;11.192;2024-01-30T07:50:35;4.45;;;2.13;;
36827;SDS011;22766;48.042;11.192;2024-01-30T07:53:02;5.97;;;3.22;;
36827;SDS011;22766;48.042;11.192;2024-01-30T07:55:29;11.60;;;5.28;;
36827;SDS011;22766;48.042;11.192;2024-01-30T07:57:58;16.27;;;5.38;;
36827;SDS011;22766;48.042;11.192;2024-01-30T08:00:26;5.32;;;2.95;;
36827;SDS011;22766;48.042;11.192;2024-01-30T08:02:53;4.35;;;2.17;;
36827;SDS011;22766;48.042;11.192;2024-01-30T08:05:23;4.40;;;2.83;;
36827;SDS011;22766;48.042;11.192;2024-01-30T08:07:51;8.02;;;2.78;;
36827;SDS011;22766;48.042;11.192;2024-01-30T08:10:18;7.47;;;2.75;;
36827;SDS011;22766;48.042;11.192;2024-01-30T08:12:45;7.00;;;2.88;;
36827;SDS011;22766;48.042;11.192;2024-01-30T08:15:13;5.22;;;2.47;;
36827;SDS011;22766;48.042;11.192;2024-01-30T08:17:40;6.75;;;2.40;;
36827;SDS011;22766;48.042;11.192;2024-01-30T08:20:07;4.35;;;2.30;;
36827;SDS011;22766;48.042;11.192;2024-01-30T08:22:35;2.78;;;1.67;;
36827;SDS011;22766;48.042;11.192;2024-01-30T08:25:02;3.35;;;1.80;;
36827;SDS011;22766;48.042;11.192;2024-01-30T08:27:29;3.20;;;1.60;;
36827;SDS011;22766;48.042;11.192;2024-01-30T08:29:56;2.60;;;1.75;;
36827;SDS011;22766;48.042;11.192;2024-01-30T08:32:23;2.47;;;1.67;;
36827;SDS011;22766;48.042;11.192;2024-01-30T08:34:50;2.65;;;1.58;;
36827;SDS011;22766;48.042;11.192;2024-01-30T08:37:17;6.38;;;1.83;;
36827;SDS011;22766;48.042;11.192;2024-01-30T08:39:44;2.95;;;1.88;;
36827;SDS011;22766;48.042;11.192;2024-01-30T08:42:11;2.85;;;1.98;;
36827;SDS011;22766;48.042;11.192;2024-01-30T08:44:38;3.90;;;2.28;;
36827;SDS011;22766;48.042;11.192;2024-01-30T08:47:05;6.38;;;2.22;;
36827;SDS011;22766;48.042;11.192;2024-01-30T08:49:32;3.15;;;2.20;;
36827;SDS011;22766;48.042;11.192;2024-01-30T08:51:59;7.22;;;2.10;;
36827;SDS011;22766;48.042;11.192;2024-01-30T08:54:27;3.35;;;2.08;;
36827;SDS011;22766;48.042;11.192;2024-01-30T08:56:53;2.88;;;2.05;;
36827;SDS011;22766;48.042;11.192;2024-01-30T08:59:22;4.00;;;2.13;;
36827;SDS011;22766;48.042;11.192;2024-01-30T09:01:49;4.05;;;1.75;;
36827;SDS011;22766;48.042;11.192;2024-01-30T09:04:32;6.38;;;1.88;;
36827;SDS011;22766;48.042;11.192;2024-01-30T09:06:59;3.35;;;1.52;;
36827;SDS011;22766;48.042;11.192;2024-01-30T09:09:26;3.50;;;1.65;;
36827;SDS011;22766;48.042;11.192;2024-01-30T09:11:53;3.03;;;1.70;;
36827;SDS011;22766;48.042;11.192;2024-01-30T09:14:20;5.63;;;1.80;;
36827;SDS011;22766;48.042;11.192;2024-01-30T09:16:47;2.45;;;1.67;;
36827;SDS011;22766;48.042;11.192;2024-01-30T09:19:15;4.53;;;2.03;;
36827;SDS011;22766;48.042;11.192;2024-01-30T09:21:42;4.30;;;1.73;;
36827;SDS011;22766;48.042;11.192;2024-01-30T09:24:09;4.05;;;1.90;;
36827;SDS011;22766;48.042;11.192;2024-01-30T09:26:38;4.03;;;1.70;;
36827;SDS011;22766;48.042;11.192;2024-01-30T09:29:08;2.47;;;1.55;;
36827;SDS011;22766;48.042;11.192;2024-01-30T09:31:35;3.17;;;2.15;;
36827;SDS011;22766;48.042;11.192;2024-01-30T09:34:02;5.32;;;1.73;;
36827;SDS011;22766;48.042;11.192;2024-01-30T09:36:31;2.75;;;1.42;;
36827;SDS011;22766;48.042;11.192;2024-01-30T09:38:58;3.33;;;1.60;;
36827;SDS011;22766;48.042;11.192;2024-01-30T09:41:25;2.63;;;1.63;;
36827;SDS011;22766;48.042;11.192;2024-01-30T09:43:53;3.25;;;1.73;;
36827;SDS011;22766;48.042;11.192;2024-01-30T09:48:55;7.40;;;1.95;;
36827;SDS011;22766;48.042;11.192;2024-01-30T09:51:24;3.17;;;1.63;;
36827;SDS011;22766;48.042;11.192;2024-01-30T09:53:53;2.63;;;1.42;;
36827;SDS011;22766;48.042;11.192;2024-01-30T09:56:21;3.10;;;1.35;;
36827;SDS011;22766;48.042;11.192;2024-01-30T09:58:48;2.42;;;1.27;;
36827;SDS011;22766;48.042;11.192;2024-01-30T10:01:15;5.65;;;2.13;;
36827;SDS011;22766;48.042;11.192;2024-01-30T10:03:45;5.18;;;2.05;;
36827;SDS011;22766;48.042;11.192;2024-01-30T10:06:13;8.05;;;2.33;;
36827;SDS011;22766;48.042;11.192;2024-01-30T10:08:42;2.92;;;1.48;;
36827;SDS011;22766;48.042;11.192;2024-01-30T10:11:10;6.03;;;1.73;;
36827;SDS011;22766;48.042;11.192;2024-01-30T10:13:38;3.22;;;1.63;;
36827;SDS011;22766;48.042;11.192;2024-01-30T10:16:06;4.28;;;1.40;;
36827;SDS011;22766;48.042;11.192;2024-01-30T10:18:33;4.63;;;1.83;;
36827;SDS011;22766;48.042;11.192;2024-01-30T10:21:00;6.68;;;1.88;;
36827;SDS011;22766;48.042;11.192;2024-01-30T10:23:27;3.47;;;1.52;;
36827;SDS011;22766;48.042;11.192;2024-01-30T10:26:02;6.10;;;1.30;;
36827;SDS011;22766;48.042;11.192;2024-01-30T10:28:30;2.65;;;1.40;;
36827;SDS011;22766;48.042;11.192;2024-01-30T10:30:58;2.65;;;1.40;;
36827;SDS011;22766;48.042;11.192;2024-01-30T10:33:30;2.75;;;1.08;;
36827;SDS011;22766;48.042;11.192;2024-01-30T10:36:00;2.85;;;1.27;;
36827;SDS011;22766;48.042;11.192;2024-01-30T10:38:30;1.73;;;0.85;;
36827;SDS011;22766;48.042;11.192;2024-01-30T10:40:59;2.00;;;1.00;;
36827;SDS011;22766;48.042;11.192;2024-01-30T10:43:31;1.42;;;0.90;;
36827;SDS011;22766;48.042;11.192;2024-01-30T10:46:18;1.40;;;0.90;;
36827;SDS011;22766;48.042;11.192;2024-01-30T10:48:50;1.60;;;0.85;;
36827;SDS011;22766;48.042;11.192;2024-01-30T10:51:26;4.00;;;1.23;;
36827;SDS011;22766;48.042;11.192;2024-01-30T10:53:55;2.65;;;1.13;;
36827;SDS011;22766;48.042;11.192;2024-01-30T10:56:24;3.65;;;1.20;;
36827;SDS011;22766;48.042;11.192;2024-01-30T10:58:52;2.85;;;1.08;;
36827;SDS011;22766;48.042;11.192;2024-01-30T11:01:20;2.17;;;0.93;;
36827;SDS011;22766;48.042;11.192;2024-01-30T11:03:52;2.92;;;1.23;;
36827;SDS011;22766;48.042;11.192;2024-01-30T11:06:27;2.25;;;1.13;;
36827;SDS011;22766;48.042;11.192;2024-01-30T11:09:01;2.03;;;0.90;;
36827;SDS011;22766;48.042;11.192;2024-01-30T11:14:28;2.90;;;0.60;;
36827;SDS011;22766;48.042;11.192;2024-01-30T11:16:57;2.15;;;0.73;;
36827;SDS011;22766;48.042;11.192;2024-01-30T11:19:25;1.55;;;0.90;;
36827;SDS011;22766;48.042;11.192;2024-01-30T11:21:53;1.05;;;0.82;;
36827;SDS011;22766;48.042;11.192;2024-01-30T11:24:24;1.07;;;0.57;;
36827;SDS011;22766;48.042;11.192;2024-01-30T11:26:58;2.45;;;0.80;;
36827;SDS011;22766;48.042;11.192;2024-01-30T11:29:29;1.73;;;0.90;;
36827;SDS011;22766;48.042;11.192;2024-01-30T11:31:57;2.22;;;1.05;;
36827;SDS011;22766;48.042;11.192;2024-01-30T11:34:25;1.27;;;0.80;;
36827;SDS011;22766;48.042;11.192;2024-01-30T11:36:55;2.90;;;1.05;;
36827;SDS011;22766;48.042;11.192;2024-01-30T11:39:26;1.27;;;0.70;;
36827;SDS011;22766;48.042;11.192;2024-01-30T11:41:54;3.90;;;0.50;;
36827;SDS011;22766;48.042;11.192;2024-01-30T11:44:22;3.13;;;0.50;;
36827;SDS011;22766;48.042;11.192;2024-01-30T11:46:50;3.33;;;1.00;;
36827;SDS011;22766;48.042;11.192;2024-01-30T11:49:18;0.90;;;0.57;;
36827;SDS011;22766;48.042;11.192;2024-01-30T11:51:46;1.08;;;0.40;;
36827;SDS011;22766;48.042;11.192;2024-01-30T11:54:16;3.03;;;0.82;;
36827;SDS011;22766;48.042;11.192;2024-01-30T11:56:43;5.80;;;0.70;;
36827;SDS011;22766;48.042;11.192;2024-01-30T11:59:10;2.00;;;0.50;;
36827;SDS011;22766;48.042;11.192;2024-01-30T12:01:37;1.02;;;0.50;;
36827;SDS011;22766;48.042;11.192;2024-01-30T12:04:04;1.58;;;0.77;;
36827;SDS011;22766;48.042;11.192;2024-01-30T12:06:38;1.88;;;0.40;;
36827;SDS011;22766;48.042;11.192;2024-01-30T12:09:06;0.93;;;0.40;;
36827;SDS011;22766;48.042;11.192;2024-01-30T12:11:43;3.20;;;1.30;;
36827;SDS011;22766;48.042;11.192;2024-01-30T12:14:12;3.13;;;0.82;;
36827;SDS011;22766;48.042;11.192;2024-01-30T12:16:39;0.80;;;0.50;;
36827;SDS011;22766;48.042;11.192;2024-01-30T12:19:07;1.48;;;0.47;;
36827;SDS011;22766;48.042;11.192;2024-01-30T12:21:35;0.70;;;0.40;;
36827;SDS011;22766;48.042;11.192;2024-01-30T12:24:02;1.73;;;0.70;;
36827;SDS011;22766;48.042;11.192;2024-01-30T12:26:30;2.65;;;0.50;;
36827;SDS011;22766;48.042;11.192;2024-01-30T12:28:57;1.00;;;0.50;;
36827;SDS011;22766;48.042;11.192;2024-01-30T12:31:28;1.15;;;0.60;;
36827;SDS011;22766;48.042;11.192;2024-01-30T12:33:56;1.35;;;0.60;;
36827;SDS011;22766;48.042;11.192;2024-01-30T12:36:24;1.33;;;0.52;;
36827;SDS011;22766;48.042;11.192;2024-01-30T12:38:52;1.88;;;0.77;;
36827;SDS011;22766;48.042;11.192;2024-01-30T12:41:19;9.90;;;0.60;;
36827;SDS011;22766;48.042;11.192;2024-01-30T12:43:47;1.05;;;0.50;;
36827;SDS011;22766;48.042;11.192;2024-01-30T12:46:16;1.50;;;0.50;;
36827;SDS011;22766;48.042;11.192;2024-01-30T12:48:44;1.05;;;0.50;;
36827;SDS011;22766;48.042;11.192;2024-01-30T12:51:12;0.93;;;0.47;;
36827;SDS011;22766;48.042;11.192;2024-01-30T12:53:38;0.80;;;0.57;;
36827;SDS011;22766;48.042;11.192;2024-01-30T12:56:05;2.72;;;0.57;;
36827;SDS011;22766;48.042;11.192;2024-01-30T12:58:32;5.68;;;0.85;;
36827;SDS011;22766;48.042;11.192;2024-01-30T13:00:59;0.50;;;0.40;;
36827;SDS011;22766;48.042;11.192;2024-01-30T13:03:26;0.68;;;0.40;;
36827;SDS011;22766;48.042;11.192;2024-01-30T13:05:53;1.90;;;0.60;;
36827;SDS011;22766;48.042;11.192;2024-01-30T13:08:21;1.40;;;0.52;;
36827;SDS011;22766;48.042;11.192;2024-01-30T13:10:51;4.60;;;0.93;;
36827;SDS011;22766;48.042;11.192;2024-01-30T13:13:18;0.80;;;0.50;;
36827;SDS011;22766;48.042;11.192;2024-01-30T13:15:47;8.23;;;0.70;;
36827;SDS011;22766;48.042;11.192;2024-01-30T13:18:15;4.55;;;0.82;;
36827;SDS011;22766;48.042;11.192;2024-01-30T13:20:42;0.90;;;0.50;;
36827;SDS011;22766;48.042;11.192;2024-01-30T13:23:09;2.17;;;1.00;;
36827;SDS011;22766;48.042;11.192;2024-01-30T13:25:35;1.45;;;0.63;;
36827;SDS011;22766;48.042;11.192;2024-01-30T13:28:02;0.80;;;0.60;;
36827;SDS011;22766;48.042;11.192;2024-01-30T13:30:30;1.98;;;0.75;;
36827;SDS011;22766;48.042;11.192;2024-01-30T13:32:57;1.48;;;0.70;;
36827;SDS011;22766;48.042;11.192;2024-01-30T13:35:25;3.78;;;0.63;;
36827;SDS011;22766;48.042;11.192;2024-01-30T13:37:52;2.60;;;0.95;;
36827;SDS011;22766;48.042;11.192;2024-01-30T13:40:18;2.47;;;0.60;;
36827;SDS011;22766;48.042;11.192;2024-01-30T13:42:46;1.63;;;0.65;;
36827;SDS011;22766;48.042;11.192;2024-01-30T13:45:13;1.52;;;0.60;;
36827;SDS011;22766;48.042;11.192;2024-01-30T13:47:40;1.63;;;0.70;;
36827;SDS011;22766;48.042;11.192;2024-01-30T13:50:07;1.33;;;0.73;;
36827;SDS011;22766;48.042;11.192;2024-01-30T13:52:35;1.25;;;0.52;;
36827;SDS011;22766;48.042;11.192;2024-01-30T13:55:10;0.95;;;0.63;;
36827;SDS011;22766;48.042;11.192;2024-01-30T13:57:37;1.30;;;0.60;;
36827;SDS011;22766;48.042;11.192;2024-01-30T14:00:05;2.08;;;0.70;;
36827;SDS011;22766;48.042;11.192;2024-01-30T14:02:38;4.93;;;0.82;;
36827;SDS011;22766;48.042;11.192;2024-01-30T14:05:05;1.88;;;0.75;;
36827;SDS011;22766;48.042;11.192;2024-01-30T14:07:36;2.08;;;0.63;;
36827;SDS011;22766;48.042;11.192;2024-01-30T14:10:06;3.38;;;0.75;;
36827;SDS011;22766;48.042;11.192;2024-01-30T14:12:38;3.58;;;0.80;;
36827;SDS011;22766;48.042;11.192;2024-01-30T14:15:07;1.50;;;0.70;;
36827;SDS011;22766;48.042;11.192;2024-01-30T14:17:52;1.95;;;0.80;;
36827;SDS011;22766;48.042;11.192;2024-01-30T14:20:20;1.88;;;0.70;;
36827;SDS011;22766;48.042;11.192;2024-01-30T14:22:50;2.38;;;1.33;;
36827;SDS011;22766;48.042;11.192;2024-01-30T14:25:18;1.35;;;0.70;;
36827;SDS011;22766;48.042;11.192;2024-01-30T14:27:45;1.33;;;0.77;;
36827;SDS011;22766;48.042;11.192;2024-01-30T14:30:12;1.88;;;0.70;;
36827;SDS011;22766;48.042;11.192;2024-01-30T14:32:39;2.03;;;0.95;;
36827;SDS011;22766;48.042;11.192;2024-01-30T14:35:07;2.65;;;0.65;;
36827;SDS011;22766;48.042;11.192;2024-01-30T14:37:35;1.90;;;0.68;;
36827;SDS011;22766;48.042;11.192;2024-01-30T14:40:02;1.77;;;0.60;;
36827;SDS011;22766;48.042;11.192;2024-01-30T14:42:36;1.83;;;0.90;;
36827;SDS011;22766;48.042;11.192;2024-01-30T14:45:05;1.67;;;0.82;;
36827;SDS011;22766;48.042;11.192;2024-01-30T14:47:33;1.02;;;0.63;;